Startpagina
METAR-TAF:

METAR-TAF

Vliegvelden :

Muscat International Airport

Masqat, Oman

breedte: 23-35N, lengte: 058-17E, hoogte: 8 m

Actueel weer

Dit bericht is 37 minuten geleden gemaakt, om 21:50 UTC
Wind 3 kt uit het zuidzuidwesten
Temperatuur 23°C
Vochtigheid 78%
Druk 1016 hPa
Zicht 10 km of meer
geen wolken onder 1500 m en geen cumulonimbus

METAR: OOMS 232150Z 21003KT CAVOK 23/19 Q1016 NOSIG

Tijdstip: 02:27 (22:27 UTC)

Verwachting

Dit bericht is 5 uur en het 27 minuten geleden gemaakt, om 17:00 UTC
Verwachting geldig van 23 om 18 UTC tot 24 om 24 UTC
Wind 2 kt uit variabele richting
Zicht: 8000 m
Wijzigt naar
van 24 om 06 UTC tot 24 om 08 UTC
Wind 10 kt uit het noordoosten
Wijzigt naar
van 24 om 15 UTC tot 24 om 17 UTC
Wind 2 kt uit variabele richting

TAF: OOMS 231700Z 2318/2424 VRB02KT 8000 NSC BECMG 2406/2408 04010KT BECMG 2415/2417 VRB02KT

Waarnemingen en weersverwachtingen van meer dan 4000 vliegvelden (METAR en TAF).

De beschikbare stations zijn de gele en rode punten op de kaart.

Ga met uw muis naar het station om de naam te zien.

Klik dan om waarnemingen en weersverwachtingen te zien.

kaart wijzigen: klik op de groene knoppen met een zwart kruis om in te zoomen, op de groene knop met een streepje om uit te zoomen of op de groene pijlen voor aangrenzende kaarten.


METAR-TAF: